sensor_id;sensor_type;location;lat;lon;timestamp;temperature;humidity
37446;DHT22;23307;51.136;14.942;2022-12-11T00:02:18;0.60;99.90
37446;DHT22;23307;51.136;14.942;2022-12-11T00:04:44;0.60;99.90
37446;DHT22;23307;51.136;14.942;2022-12-11T00:07:09;0.60;99.90
37446;DHT22;23307;51.136;14.942;2022-12-11T00:09:35;0.50;99.90
37446;DHT22;23307;51.136;14.942;2022-12-11T00:12:01;0.50;99.90
37446;DHT22;23307;51.136;14.942;2022-12-11T00:14:31;0.50;99.90
37446;DHT22;23307;51.136;14.942;2022-12-11T00:16:57;0.50;99.90
37446;DHT22;23307;51.136;14.942;2022-12-11T00:19:22;0.50;99.90
37446;DHT22;23307;51.136;14.942;2022-12-11T00:21:48;0.50;99.90
37446;DHT22;23307;51.136;14.942;2022-12-11T00:24:14;0.50;99.90
37446;DHT22;23307;51.136;14.942;2022-12-11T00:26:39;0.40;99.90
37446;DHT22;23307;51.136;14.942;2022-12-11T00:29:05;0.40;99.90
37446;DHT22;23307;51.136;14.942;2022-12-11T00:31:32;0.50;99.90
37446;DHT22;23307;51.136;14.942;2022-12-11T00:34:00;0.50;99.90
37446;DHT22;23307;51.136;14.942;2022-12-11T00:36:26;0.50;99.90
37446;DHT22;23307;51.136;14.942;2022-12-11T00:38:52;0.50;99.90
37446;DHT22;23307;51.136;14.942;2022-12-11T00:41:18;0.50;99.90
37446;DHT22;23307;51.136;14.942;2022-12-11T00:43:45;0.50;99.90
37446;DHT22;23307;51.136;14.942;2022-12-11T00:46:11;0.50;99.90
37446;DHT22;23307;51.136;14.942;2022-12-11T00:48:36;0.50;99.90
37446;DHT22;23307;51.136;14.942;2022-12-11T00:51:02;0.50;99.90
37446;DHT22;23307;51.136;14.942;2022-12-11T00:53:27;0.50;99.90
37446;DHT22;23307;51.136;14.942;2022-12-11T00:55:53;0.50;99.90
37446;DHT22;23307;51.136;14.942;2022-12-11T00:58:19;0.50;99.90
37446;DHT22;23307;51.136;14.942;2022-12-11T01:00:45;0.50;99.90
37446;DHT22;23307;51.136;14.942;2022-12-11T01:03:13;0.40;99.90
37446;DHT22;23307;51.136;14.942;2022-12-11T01:05:39;0.40;99.90
37446;DHT22;23307;51.136;14.942;2022-12-11T01:08:05;0.40;99.90
37446;DHT22;23307;51.136;14.942;2022-12-11T01:10:31;0.40;99.90
37446;DHT22;23307;51.136;14.942;2022-12-11T01:13:00;0.40;99.90
37446;DHT22;23307;51.136;14.942;2022-12-11T01:15:29;0.40;99.90
37446;DHT22;23307;51.136;14.942;2022-12-11T01:17:56;0.40;99.90
37446;DHT22;23307;51.136;14.942;2022-12-11T01:20:22;0.40;99.90
37446;DHT22;23307;51.136;14.942;2022-12-11T01:22:51;0.40;99.90
37446;DHT22;23307;51.136;14.942;2022-12-11T01:25:17;0.40;99.90
37446;DHT22;23307;51.136;14.942;2022-12-11T01:27:42;0.40;99.90
37446;DHT22;23307;51.136;14.942;2022-12-11T01:30:13;0.40;99.90
37446;DHT22;23307;51.136;14.942;2022-12-11T01:32:38;0.40;99.90
37446;DHT22;23307;51.136;14.942;2022-12-11T01:35:05;0.30;99.90
37446;DHT22;23307;51.136;14.942;2022-12-11T01:37:31;0.30;99.90
37446;DHT22;23307;51.136;14.942;2022-12-11T01:39:57;0.40;99.90
37446;DHT22;23307;51.136;14.942;2022-12-11T01:42:23;0.30;99.90
37446;DHT22;23307;51.136;14.942;2022-12-11T01:47:15;0.30;99.90
37446;DHT22;23307;51.136;14.942;2022-12-11T01:49:41;0.20;99.90
37446;DHT22;23307;51.136;14.942;2022-12-11T01:52:15;0.30;99.90
37446;DHT22;23307;51.136;14.942;2022-12-11T01:54:44;0.30;99.90
37446;DHT22;23307;51.136;14.942;2022-12-11T01:57:12;0.20;99.90
37446;DHT22;23307;51.136;14.942;2022-12-11T01:59:43;0.20;99.90
37446;DHT22;23307;51.136;14.942;2022-12-11T02:02:16;0.20;99.90
37446;DHT22;23307;51.136;14.942;2022-12-11T02:04:45;0.20;99.90
37446;DHT22;23307;51.136;14.942;2022-12-11T02:07:10;0.20;99.90
37446;DHT22;23307;51.136;14.942;2022-12-11T02:09:37;0.20;99.90
37446;DHT22;23307;51.136;14.942;2022-12-11T02:31:01;0.00;99.90
37446;DHT22;23307;51.136;14.942;2022-12-11T02:36:40;-0.10;99.90
37446;DHT22;23307;51.136;14.942;2022-12-11T02:39:10;-0.20;99.90
37446;DHT22;23307;51.136;14.942;2022-12-11T02:41:39;-0.20;99.90
37446;DHT22;23307;51.136;14.942;2022-12-11T02:44:07;-0.20;99.90
37446;DHT22;23307;51.136;14.942;2022-12-11T02:46:35;-0.10;99.90
37446;DHT22;23307;51.136;14.942;2022-12-11T02:49:02;-0.20;99.90
37446;DHT22;23307;51.136;14.942;2022-12-11T02:51:32;-0.20;99.90
37446;DHT22;23307;51.136;14.942;2022-12-11T02:53:58;-0.20;99.90
37446;DHT22;23307;51.136;14.942;2022-12-11T02:56:56;-0.20;99.90
37446;DHT22;23307;51.136;14.942;2022-12-11T02:59:29;-0.20;99.90
37446;DHT22;23307;51.136;14.942;2022-12-11T03:01:59;-0.30;99.90
37446;DHT22;23307;51.136;14.942;2022-12-11T03:04:25;-0.40;99.90
37446;DHT22;23307;51.136;14.942;2022-12-11T03:06:53;-0.50;99.90
37446;DHT22;23307;51.136;14.942;2022-12-11T03:09:19;-0.40;99.90
37446;DHT22;23307;51.136;14.942;2022-12-11T03:11:45;-0.40;99.90
37446;DHT22;23307;51.136;14.942;2022-12-11T03:14:11;-0.40;99.90
37446;DHT22;23307;51.136;14.942;2022-12-11T03:16:41;-0.40;99.90
37446;DHT22;23307;51.136;14.942;2022-12-11T03:19:26;-0.40;99.90
37446;DHT22;23307;51.136;14.942;2022-12-11T03:22:18;-0.40;99.90
37446;DHT22;23307;51.136;14.942;2022-12-11T03:25:32;-0.40;99.90
37446;DHT22;23307;51.136;14.942;2022-12-11T03:27:36;-0.50;99.90
37446;DHT22;23307;51.136;14.942;2022-12-11T03:30:16;-0.50;99.90
37446;DHT22;23307;51.136;14.942;2022-12-11T03:33:03;-0.60;99.90
37446;DHT22;23307;51.136;14.942;2022-12-11T03:38:03;-0.70;99.90
37446;DHT22;23307;51.136;14.942;2022-12-11T03:40:31;-0.70;99.90
37446;DHT22;23307;51.136;14.942;2022-12-11T03:42:59;-0.80;99.90
37446;DHT22;23307;51.136;14.942;2022-12-11T03:45:26;-0.80;99.90
37446;DHT22;23307;51.136;14.942;2022-12-11T03:47:55;-0.80;99.90
37446;DHT22;23307;51.136;14.942;2022-12-11T03:50:24;-0.80;99.90
37446;DHT22;23307;51.136;14.942;2022-12-11T03:52:51;-0.80;99.90
37446;DHT22;23307;51.136;14.942;2022-12-11T03:55:20;-0.80;99.90
37446;DHT22;23307;51.136;14.942;2022-12-11T03:57:46;-0.80;99.90
37446;DHT22;23307;51.136;14.942;2022-12-11T04:00:15;-0.80;99.90
37446;DHT22;23307;51.136;14.942;2022-12-11T04:02:41;-0.80;99.90
37446;DHT22;23307;51.136;14.942;2022-12-11T04:05:07;-0.80;99.90
37446;DHT22;23307;51.136;14.942;2022-12-11T04:07:33;-0.80;99.90
37446;DHT22;23307;51.136;14.942;2022-12-11T04:09:59;-0.90;99.90
37446;DHT22;23307;51.136;14.942;2022-12-11T04:12:24;-0.90;99.90
37446;DHT22;23307;51.136;14.942;2022-12-11T04:14:50;-0.80;99.90
37446;DHT22;23307;51.136;14.942;2022-12-11T04:17:32;-0.80;99.90
37446;DHT22;23307;51.136;14.942;2022-12-11T04:20:17;-0.80;99.90
37446;DHT22;23307;51.136;14.942;2022-12-11T04:23:13;-0.80;99.90
37446;DHT22;23307;51.136;14.942;2022-12-11T04:26:11;-0.70;99.90
37446;DHT22;23307;51.136;14.942;2022-12-11T04:28:38;-0.70;99.90
37446;DHT22;23307;51.136;14.942;2022-12-11T04:31:04;-0.70;99.90
37446;DHT22;23307;51.136;14.942;2022-12-11T04:33:30;-0.70;99.90
37446;DHT22;23307;51.136;14.942;2022-12-11T04:35:59;-0.70;99.90
37446;DHT22;23307;51.136;14.942;2022-12-11T04:38:25;-0.60;99.90
37446;DHT22;23307;51.136;14.942;2022-12-11T04:41:08;-0.60;99.90
37446;DHT22;23307;51.136;14.942;2022-12-11T04:43:35;-0.70;99.90
37446;DHT22;23307;51.136;14.942;2022-12-11T04:48:30;-0.90;99.90
37446;DHT22;23307;51.136;14.942;2022-12-11T04:50:56;-1.00;99.90
37446;DHT22;23307;51.136;14.942;2022-12-11T04:53:22;-1.10;99.90
37446;DHT22;23307;51.136;14.942;2022-12-11T04:55:47;-1.10;99.90
37446;DHT22;23307;51.136;14.942;2022-12-11T04:58:13;-1.00;99.90
37446;DHT22;23307;51.136;14.942;2022-12-11T05:00:40;-1.00;99.90
37446;DHT22;23307;51.136;14.942;2022-12-11T05:03:05;-1.00;99.90
37446;DHT22;23307;51.136;14.942;2022-12-11T05:05:31;-1.00;99.90
37446;DHT22;23307;51.136;14.942;2022-12-11T05:07:56;-1.00;99.90
37446;DHT22;23307;51.136;14.942;2022-12-11T05:10:22;-1.00;99.90
37446;DHT22;23307;51.136;14.942;2022-12-11T05:12:48;-1.10;99.90
37446;DHT22;23307;51.136;14.942;2022-12-11T05:15:13;-1.20;99.90
37446;DHT22;23307;51.136;14.942;2022-12-11T05:17:39;-1.30;99.90
37446;DHT22;23307;51.136;14.942;2022-12-11T05:20:05;-1.30;99.90
37446;DHT22;23307;51.136;14.942;2022-12-11T05:22:30;-1.40;99.90
37446;DHT22;23307;51.136;14.942;2022-12-11T05:24:56;-1.50;99.90
37446;DHT22;23307;51.136;14.942;2022-12-11T05:27:22;-1.40;99.90
37446;DHT22;23307;51.136;14.942;2022-12-11T05:29:47;-1.50;99.90
37446;DHT22;23307;51.136;14.942;2022-12-11T05:32:13;-1.50;99.90
37446;DHT22;23307;51.136;14.942;2022-12-11T05:34:39;-1.60;99.90
37446;DHT22;23307;51.136;14.942;2022-12-11T05:37:04;-1.60;99.90
37446;DHT22;23307;51.136;14.942;2022-12-11T05:39:30;-1.60;99.90
37446;DHT22;23307;51.136;14.942;2022-12-11T05:41:55;-1.60;99.90
37446;DHT22;23307;51.136;14.942;2022-12-11T05:44:21;-1.60;99.90
37446;DHT22;23307;51.136;14.942;2022-12-11T05:46:46;-1.70;99.90
37446;DHT22;23307;51.136;14.942;2022-12-11T05:49:12;-1.70;99.90
37446;DHT22;23307;51.136;14.942;2022-12-11T05:51:38;-1.70;99.90
37446;DHT22;23307;51.136;14.942;2022-12-11T05:54:04;-1.80;99.90
37446;DHT22;23307;51.136;14.942;2022-12-11T05:56:32;-1.90;99.90
37446;DHT22;23307;51.136;14.942;2022-12-11T05:58:59;-1.90;99.90
37446;DHT22;23307;51.136;14.942;2022-12-11T06:01:31;-2.00;99.90
37446;DHT22;23307;51.136;14.942;2022-12-11T06:03:58;-2.00;99.90
37446;DHT22;23307;51.136;14.942;2022-12-11T06:06:24;-2.00;99.90
37446;DHT22;23307;51.136;14.942;2022-12-11T06:08:51;-2.00;99.90
37446;DHT22;23307;51.136;14.942;2022-12-11T06:11:17;-2.00;99.90
37446;DHT22;23307;51.136;14.942;2022-12-11T06:13:43;-2.00;99.90
37446;DHT22;23307;51.136;14.942;2022-12-11T06:16:09;-2.00;99.90
37446;DHT22;23307;51.136;14.942;2022-12-11T06:18:40;-2.00;99.90
37446;DHT22;23307;51.136;14.942;2022-12-11T06:21:13;-1.90;99.90
37446;DHT22;23307;51.136;14.942;2022-12-11T06:23:39;-1.90;99.90
37446;DHT22;23307;51.136;14.942;2022-12-11T06:26:06;-1.90;99.90
37446;DHT22;23307;51.136;14.942;2022-12-11T06:28:31;-1.90;99.90
37446;DHT22;23307;51.136;14.942;2022-12-11T06:30:58;-1.90;99.90
37446;DHT22;23307;51.136;14.942;2022-12-11T06:33:24;-1.90;99.90
37446;DHT22;23307;51.136;14.942;2022-12-11T06:35:50;-1.90;99.90
37446;DHT22;23307;51.136;14.942;2022-12-11T06:38:16;-1.80;99.90
37446;DHT22;23307;51.136;14.942;2022-12-11T06:40:42;-1.80;99.90
37446;DHT22;23307;51.136;14.942;2022-12-11T06:43:07;-1.80;99.90
37446;DHT22;23307;51.136;14.942;2022-12-11T06:45:33;-1.80;99.90
37446;DHT22;23307;51.136;14.942;2022-12-11T06:47:58;-1.80;99.90
37446;DHT22;23307;51.136;14.942;2022-12-11T06:50:24;-1.80;99.90
37446;DHT22;23307;51.136;14.942;2022-12-11T06:52:50;-1.80;99.90
37446;DHT22;23307;51.136;14.942;2022-12-11T06:55:15;-1.70;99.90
37446;DHT22;23307;51.136;14.942;2022-12-11T06:57:41;-1.80;99.90
37446;DHT22;23307;51.136;14.942;2022-12-11T07:00:07;-1.80;99.90
37446;DHT22;23307;51.136;14.942;2022-12-11T07:02:33;-1.80;99.90
37446;DHT22;23307;51.136;14.942;2022-12-11T07:04:58;-1.80;99.90
37446;DHT22;23307;51.136;14.942;2022-12-11T07:07:24;-1.70;99.90
37446;DHT22;23307;51.136;14.942;2022-12-11T07:09:49;-1.70;99.90
37446;DHT22;23307;51.136;14.942;2022-12-11T07:12:15;-1.70;99.90
37446;DHT22;23307;51.136;14.942;2022-12-11T07:14:41;-1.70;99.90
37446;DHT22;23307;51.136;14.942;2022-12-11T07:17:06;-1.60;99.90
37446;DHT22;23307;51.136;14.942;2022-12-11T07:19:32;-1.60;99.90
37446;DHT22;23307;51.136;14.942;2022-12-11T07:21:57;-1.70;99.90
37446;DHT22;23307;51.136;14.942;2022-12-11T07:24:24;-1.70;99.90
37446;DHT22;23307;51.136;14.942;2022-12-11T07:26:49;-1.70;99.90
37446;DHT22;23307;51.136;14.942;2022-12-11T07:29:15;-1.60;99.90
37446;DHT22;23307;51.136;14.942;2022-12-11T07:31:40;-1.60;99.90
37446;DHT22;23307;51.136;14.942;2022-12-11T07:34:06;-1.60;99.90
37446;DHT22;23307;51.136;14.942;2022-12-11T07:36:32;-1.50;99.90
37446;DHT22;23307;51.136;14.942;2022-12-11T07:38:59;-1.50;99.90
37446;DHT22;23307;51.136;14.942;2022-12-11T07:41:25;-1.50;99.90
37446;DHT22;23307;51.136;14.942;2022-12-11T07:43:56;-1.50;99.90
37446;DHT22;23307;51.136;14.942;2022-12-11T07:46:24;-1.40;99.90
37446;DHT22;23307;51.136;14.942;2022-12-11T07:48:50;-1.50;99.90
37446;DHT22;23307;51.136;14.942;2022-12-11T07:53:44;-1.50;99.90
37446;DHT22;23307;51.136;14.942;2022-12-11T07:56:11;-1.50;99.90
37446;DHT22;23307;51.136;14.942;2022-12-11T07:58:36;-1.50;99.90
37446;DHT22;23307;51.136;14.942;2022-12-11T08:01:04;-1.40;99.90
37446;DHT22;23307;51.136;14.942;2022-12-11T08:03:30;-1.40;99.90
37446;DHT22;23307;51.136;14.942;2022-12-11T08:05:55;-1.40;99.90
37446;DHT22;23307;51.136;14.942;2022-12-11T08:08:21;-1.30;99.90
37446;DHT22;23307;51.136;14.942;2022-12-11T08:10:46;-1.30;99.90
37446;DHT22;23307;51.136;14.942;2022-12-11T08:13:12;-1.20;99.90
37446;DHT22;23307;51.136;14.942;2022-12-11T08:15:37;-1.20;99.90
37446;DHT22;23307;51.136;14.942;2022-12-11T08:18:04;-1.20;99.90
37446;DHT22;23307;51.136;14.942;2022-12-11T08:20:30;-1.10;99.90
37446;DHT22;23307;51.136;14.942;2022-12-11T08:22:56;-1.20;99.90
37446;DHT22;23307;51.136;14.942;2022-12-11T08:25:22;-1.20;99.90
37446;DHT22;23307;51.136;14.942;2022-12-11T08:27:47;-1.20;99.90
37446;DHT22;23307;51.136;14.942;2022-12-11T08:30:13;-1.20;99.90
37446;DHT22;23307;51.136;14.942;2022-12-11T08:32:39;-1.20;99.90
37446;DHT22;23307;51.136;14.942;2022-12-11T08:35:05;-1.20;99.90
37446;DHT22;23307;51.136;14.942;2022-12-11T08:37:30;-1.20;99.90
37446;DHT22;23307;51.136;14.942;2022-12-11T08:39:57;-1.10;99.90
37446;DHT22;23307;51.136;14.942;2022-12-11T08:42:23;-1.10;99.90
37446;DHT22;23307;51.136;14.942;2022-12-11T08:44:48;-1.00;99.90
37446;DHT22;23307;51.136;14.942;2022-12-11T08:47:14;-1.00;99.90
37446;DHT22;23307;51.136;14.942;2022-12-11T08:49:40;-1.00;99.90
37446;DHT22;23307;51.136;14.942;2022-12-11T08:52:05;-1.00;99.90
37446;DHT22;23307;51.136;14.942;2022-12-11T08:54:31;-0.90;99.90
37446;DHT22;23307;51.136;14.942;2022-12-11T08:56:56;-0.80;99.90
37446;DHT22;23307;51.136;14.942;2022-12-11T08:59:22;-0.80;99.90
37446;DHT22;23307;51.136;14.942;2022-12-11T09:01:50;-0.80;99.90
37446;DHT22;23307;51.136;14.942;2022-12-11T09:04:16;-0.80;99.90
37446;DHT22;23307;51.136;14.942;2022-12-11T09:06:41;-0.80;99.90
37446;DHT22;23307;51.136;14.942;2022-12-11T09:09:07;-0.70;99.90
37446;DHT22;23307;51.136;14.942;2022-12-11T09:11:34;-0.70;99.90
37446;DHT22;23307;51.136;14.942;2022-12-11T09:14:01;-0.70;99.90
37446;DHT22;23307;51.136;14.942;2022-12-11T09:16:27;-0.70;99.90
37446;DHT22;23307;51.136;14.942;2022-12-11T09:18:55;-0.70;99.90
37446;DHT22;23307;51.136;14.942;2022-12-11T09:21:23;-0.70;99.90
37446;DHT22;23307;51.136;14.942;2022-12-11T09:23:53;-0.70;99.90
37446;DHT22;23307;51.136;14.942;2022-12-11T09:26:19;-0.60;99.90
37446;DHT22;23307;51.136;14.942;2022-12-11T09:28:45;-0.40;99.90
37446;DHT22;23307;51.136;14.942;2022-12-11T09:31:14;-0.30;99.90
37446;DHT22;23307;51.136;14.942;2022-12-11T09:33:40;-0.20;99.90
37446;DHT22;23307;51.136;14.942;2022-12-11T09:36:06;-0.10;99.90
37446;DHT22;23307;51.136;14.942;2022-12-11T09:38:32;-0.10;99.90
37446;DHT22;23307;51.136;14.942;2022-12-11T09:40:59;-0.10;99.90
37446;DHT22;23307;51.136;14.942;2022-12-11T09:43:40;-0.20;99.90
37446;DHT22;23307;51.136;14.942;2022-12-11T09:46:10;-0.20;99.90
37446;DHT22;23307;51.136;14.942;2022-12-11T09:48:39;-0.20;99.90
37446;DHT22;23307;51.136;14.942;2022-12-11T09:51:23;-0.20;99.90
37446;DHT22;23307;51.136;14.942;2022-12-11T09:53:51;-0.20;99.90
37446;DHT22;23307;51.136;14.942;2022-12-11T10:02:32;-0.30;99.90
37446;DHT22;23307;51.136;14.942;2022-12-11T10:16:39;-0.70;99.90
37446;DHT22;23307;51.136;14.942;2022-12-11T10:19:21;-0.70;99.90
37446;DHT22;23307;51.136;14.942;2022-12-11T10:21:50;-0.70;99.90
37446;DHT22;23307;51.136;14.942;2022-12-11T10:24:27;-0.70;99.90
37446;DHT22;23307;51.136;14.942;2022-12-11T10:26:57;-0.60;99.90
37446;DHT22;23307;51.136;14.942;2022-12-11T10:29:23;-0.50;99.90
37446;DHT22;23307;51.136;14.942;2022-12-11T10:31:54;-0.50;99.90
37446;DHT22;23307;51.136;14.942;2022-12-11T10:36:48;-0.30;99.90
37446;DHT22;23307;51.136;14.942;2022-12-11T10:39:17;-0.10;99.90
37446;DHT22;23307;51.136;14.942;2022-12-11T10:41:45;0.10;99.90
37446;DHT22;23307;51.136;14.942;2022-12-11T10:44:21;0.10;99.90
37446;DHT22;23307;51.136;14.942;2022-12-11T10:47:00;0.20;99.90
37446;DHT22;23307;51.136;14.942;2022-12-11T10:49:28;0.30;99.90
37446;DHT22;23307;51.136;14.942;2022-12-11T10:51:54;0.40;99.90
37446;DHT22;23307;51.136;14.942;2022-12-11T10:56:55;0.20;99.90
37446;DHT22;23307;51.136;14.942;2022-12-11T11:02:18;0.20;99.90
37446;DHT22;23307;51.136;14.942;2022-12-11T11:04:46;0.20;99.90
37446;DHT22;23307;51.136;14.942;2022-12-11T11:07:19;0.30;99.90
37446;DHT22;23307;51.136;14.942;2022-12-11T11:09:46;0.30;99.90
37446;DHT22;23307;51.136;14.942;2022-12-11T11:12:24;0.20;99.90
37446;DHT22;23307;51.136;14.942;2022-12-11T11:15:05;0.10;99.90
37446;DHT22;23307;51.136;14.942;2022-12-11T11:17:32;0.00;99.90
37446;DHT22;23307;51.136;14.942;2022-12-11T11:20:12;-0.10;99.90
37446;DHT22;23307;51.136;14.942;2022-12-11T11:22:52;-0.10;99.90
37446;DHT22;23307;51.136;14.942;2022-12-11T11:25:26;-0.10;99.90
37446;DHT22;23307;51.136;14.942;2022-12-11T11:28:05;-0.20;99.90
37446;DHT22;23307;51.136;14.942;2022-12-11T11:30:41;-0.30;99.90
37446;DHT22;23307;51.136;14.942;2022-12-11T11:33:17;-0.20;99.90
37446;DHT22;23307;51.136;14.942;2022-12-11T11:35:59;-0.20;99.90
37446;DHT22;23307;51.136;14.942;2022-12-11T11:38:43;-0.10;99.90
37446;DHT22;23307;51.136;14.942;2022-12-11T11:41:44;-0.10;99.90
37446;DHT22;23307;51.136;14.942;2022-12-11T11:44:15;-0.20;99.90
37446;DHT22;23307;51.136;14.942;2022-12-11T11:46:56;-0.30;99.90
37446;DHT22;23307;51.136;14.942;2022-12-11T11:49:49;-0.30;99.90
37446;DHT22;23307;51.136;14.942;2022-12-11T11:52:28;-0.40;99.90
37446;DHT22;23307;51.136;14.942;2022-12-11T11:57:48;-0.50;99.90
37446;DHT22;23307;51.136;14.942;2022-12-11T12:00:22;-0.60;99.90
37446;DHT22;23307;51.136;14.942;2022-12-11T12:02:52;-0.60;99.90
37446;DHT22;23307;51.136;14.942;2022-12-11T12:05:24;-0.60;99.90
37446;DHT22;23307;51.136;14.942;2022-12-11T12:08:11;-0.60;99.90
37446;DHT22;23307;51.136;14.942;2022-12-11T12:16:28;-0.70;99.90
37446;DHT22;23307;51.136;14.942;2022-12-11T12:21:54;-0.70;99.90
37446;DHT22;23307;51.136;14.942;2022-12-11T12:27:53;-0.70;99.90
37446;DHT22;23307;51.136;14.942;2022-12-11T12:30:20;-0.80;99.90
37446;DHT22;23307;51.136;14.942;2022-12-11T12:35:33;-0.90;99.90
37446;DHT22;23307;51.136;14.942;2022-12-11T12:38:20;-0.90;99.90
37446;DHT22;23307;51.136;14.942;2022-12-11T12:44:08;-0.90;99.90
37446;DHT22;23307;51.136;14.942;2022-12-11T12:46:41;-0.80;99.90
37446;DHT22;23307;51.136;14.942;2022-12-11T12:49:13;-0.90;99.90
37446;DHT22;23307;51.136;14.942;2022-12-11T12:51:40;-1.00;99.90
37446;DHT22;23307;51.136;14.942;2022-12-11T12:54:13;-1.00;99.90
37446;DHT22;23307;51.136;14.942;2022-12-11T12:56:41;-1.10;99.90
37446;DHT22;23307;51.136;14.942;2022-12-11T12:59:26;-1.10;99.90
37446;DHT22;23307;51.136;14.942;2022-12-11T13:02:15;-1.10;99.90
37446;DHT22;23307;51.136;14.942;2022-12-11T13:04:42;-1.10;99.90
37446;DHT22;23307;51.136;14.942;2022-12-11T13:07:20;-1.20;99.90
37446;DHT22;23307;51.136;14.942;2022-12-11T13:10:06;-1.20;99.90
37446;DHT22;23307;51.136;14.942;2022-12-11T13:12:52;-1.10;99.90
37446;DHT22;23307;51.136;14.942;2022-12-11T13:15:41;-1.20;99.90
37446;DHT22;23307;51.136;14.942;2022-12-11T13:18:32;-1.20;99.90
37446;DHT22;23307;51.136;14.942;2022-12-11T13:20:58;-1.30;99.90
37446;DHT22;23307;51.136;14.942;2022-12-11T13:25:55;-1.20;99.90
37446;DHT22;23307;51.136;14.942;2022-12-11T13:33:47;-1.20;99.90
37446;DHT22;23307;51.136;14.942;2022-12-11T13:36:26;-1.30;99.90
37446;DHT22;23307;51.136;14.942;2022-12-11T13:39:15;-1.30;99.90
37446;DHT22;23307;51.136;14.942;2022-12-11T13:41:47;-1.30;99.90
37446;DHT22;23307;51.136;14.942;2022-12-11T13:44:22;-1.40;99.90
37446;DHT22;23307;51.136;14.942;2022-12-11T13:46:49;-1.40;99.90
37446;DHT22;23307;51.136;14.942;2022-12-11T13:49:22;-1.40;99.90
37446;DHT22;23307;51.136;14.942;2022-12-11T13:51:57;-1.40;99.90
37446;DHT22;23307;51.136;14.942;2022-12-11T13:54:23;-1.30;99.90
37446;DHT22;23307;51.136;14.942;2022-12-11T13:59:36;-1.30;99.90
37446;DHT22;23307;51.136;14.942;2022-12-11T14:02:28;-1.30;99.90
37446;DHT22;23307;51.136;14.942;2022-12-11T14:05:01;-1.40;99.90
37446;DHT22;23307;51.136;14.942;2022-12-11T14:07:33;-1.40;99.90
37446;DHT22;23307;51.136;14.942;2022-12-11T14:10:08;-1.40;99.90
37446;DHT22;23307;51.136;14.942;2022-12-11T14:12:42;-1.40;99.90
37446;DHT22;23307;51.136;14.942;2022-12-11T14:15:12;-1.40;99.90
37446;DHT22;23307;51.136;14.942;2022-12-11T14:17:41;-1.40;99.90
37446;DHT22;23307;51.136;14.942;2022-12-11T14:20:17;-1.40;99.90
37446;DHT22;23307;51.136;14.942;2022-12-11T14:22:43;-1.40;99.90
37446;DHT22;23307;51.136;14.942;2022-12-11T14:25:24;-1.40;99.90
37446;DHT22;23307;51.136;14.942;2022-12-11T14:27:52;-1.40;99.90
37446;DHT22;23307;51.136;14.942;2022-12-11T14:30:29;-1.40;99.90
37446;DHT22;23307;51.136;14.942;2022-12-11T14:32:58;-1.40;99.90
37446;DHT22;23307;51.136;14.942;2022-12-11T14:35:33;-1.40;99.90
37446;DHT22;23307;51.136;14.942;2022-12-11T14:38:03;-1.40;99.90
37446;DHT22;23307;51.136;14.942;2022-12-11T14:40:36;-1.40;99.90
37446;DHT22;23307;51.136;14.942;2022-12-11T14:43:09;-1.50;99.90
37446;DHT22;23307;51.136;14.942;2022-12-11T14:45:38;-1.50;99.90
37446;DHT22;23307;51.136;14.942;2022-12-11T14:48:11;-1.50;99.90
37446;DHT22;23307;51.136;14.942;2022-12-11T14:50:47;-1.50;99.90
37446;DHT22;23307;51.136;14.942;2022-12-11T14:53:25;-1.50;99.90
37446;DHT22;23307;51.136;14.942;2022-12-11T14:55:51;-1.50;99.90
37446;DHT22;23307;51.136;14.942;2022-12-11T14:58:21;-1.50;99.90
37446;DHT22;23307;51.136;14.942;2022-12-11T15:01:06;-1.40;99.90
37446;DHT22;23307;51.136;14.942;2022-12-11T15:03:37;-1.40;99.90
37446;DHT22;23307;51.136;14.942;2022-12-11T15:06:27;-1.40;99.90
37446;DHT22;23307;51.136;14.942;2022-12-11T15:08:53;-1.40;99.90
37446;DHT22;23307;51.136;14.942;2022-12-11T15:11:20;-1.40;99.90
37446;DHT22;23307;51.136;14.942;2022-12-11T15:16:13;-1.40;99.90
37446;DHT22;23307;51.136;14.942;2022-12-11T15:18:40;-1.50;99.90
37446;DHT22;23307;51.136;14.942;2022-12-11T15:21:08;-1.50;99.90
37446;DHT22;23307;51.136;14.942;2022-12-11T15:23:54;-1.50;99.90
37446;DHT22;23307;51.136;14.942;2022-12-11T15:29:04;-1.60;99.90
37446;DHT22;23307;51.136;14.942;2022-12-11T15:31:32;-1.60;99.90
37446;DHT22;23307;51.136;14.942;2022-12-11T15:33:59;-1.70;99.90
37446;DHT22;23307;51.136;14.942;2022-12-11T15:36:35;-1.60;99.90
37446;DHT22;23307;51.136;14.942;2022-12-11T15:39:03;-1.60;99.90
37446;DHT22;23307;51.136;14.942;2022-12-11T15:41:30;-1.60;99.90
37446;DHT22;23307;51.136;14.942;2022-12-11T15:44:00;-1.60;99.90
37446;DHT22;23307;51.136;14.942;2022-12-11T15:46:27;-1.70;99.90
37446;DHT22;23307;51.136;14.942;2022-12-11T15:48:55;-1.70;99.90
37446;DHT22;23307;51.136;14.942;2022-12-11T15:51:21;-1.70;99.90
37446;DHT22;23307;51.136;14.942;2022-12-11T15:53:47;-1.70;99.90
37446;DHT22;23307;51.136;14.942;2022-12-11T15:56:15;-1.70;99.90
37446;DHT22;23307;51.136;14.942;2022-12-11T15:58:44;-1.70;99.90
37446;DHT22;23307;51.136;14.942;2022-12-11T16:01:11;-1.70;99.90
37446;DHT22;23307;51.136;14.942;2022-12-11T16:03:36;-1.70;99.90
37446;DHT22;23307;51.136;14.942;2022-12-11T16:06:02;-1.60;99.90
37446;DHT22;23307;51.136;14.942;2022-12-11T16:08:28;-1.60;99.90
37446;DHT22;23307;51.136;14.942;2022-12-11T16:10:54;-1.60;99.90
37446;DHT22;23307;51.136;14.942;2022-12-11T16:13:20;-1.60;99.90
37446;DHT22;23307;51.136;14.942;2022-12-11T16:15:46;-1.70;99.90
37446;DHT22;23307;51.136;14.942;2022-12-11T16:18:15;-1.70;99.90
37446;DHT22;23307;51.136;14.942;2022-12-11T16:20:42;-1.70;99.90
37446;DHT22;23307;51.136;14.942;2022-12-11T16:23:08;-1.70;99.90
37446;DHT22;23307;51.136;14.942;2022-12-11T16:25:37;-1.70;99.90
37446;DHT22;23307;51.136;14.942;2022-12-11T16:28:04;-1.70;99.90
37446;DHT22;23307;51.136;14.942;2022-12-11T16:30:30;-1.70;99.90
37446;DHT22;23307;51.136;14.942;2022-12-11T16:32:56;-1.70;99.90
37446;DHT22;23307;51.136;14.942;2022-12-11T16:35:21;-1.70;99.90
37446;DHT22;23307;51.136;14.942;2022-12-11T16:37:48;-1.70;99.90
37446;DHT22;23307;51.136;14.942;2022-12-11T16:40:15;-1.70;99.90
37446;DHT22;23307;51.136;14.942;2022-12-11T16:42:40;-1.70;99.90
37446;DHT22;23307;51.136;14.942;2022-12-11T16:45:09;-1.80;99.90
37446;DHT22;23307;51.136;14.942;2022-12-11T16:47:36;-1.80;99.90
37446;DHT22;23307;51.136;14.942;2022-12-11T16:50:02;-1.80;99.90
37446;DHT22;23307;51.136;14.942;2022-12-11T16:52:27;-1.80;99.90
37446;DHT22;23307;51.136;14.942;2022-12-11T16:54:53;-1.90;99.90
37446;DHT22;23307;51.136;14.942;2022-12-11T16:57:19;-1.80;99.90
37446;DHT22;23307;51.136;14.942;2022-12-11T16:59:46;-1.80;99.90
37446;DHT22;23307;51.136;14.942;2022-12-11T17:02:11;-1.90;99.90
37446;DHT22;23307;51.136;14.942;2022-12-11T17:04:37;-1.90;99.90
37446;DHT22;23307;51.136;14.942;2022-12-11T17:07:04;-1.80;99.90